Aérodrome :
LOGIN :

S'inscrire | Disclaimer

   EN    FR    IT 

 










Légende :    VFR   VFR Marginal   IFR   IFR Intensif   IFR Très Intensif
Visi : 
Plafond : 
>= 8 km
>= 3000ft
5 à 8 km
1000 à 3000 ft
1500m à 5 km
500 à 1000 ft
800 à 1500m
200 à 500 ft
< 800m
< 200 ft
Symboles :   Orages  Brouillard  Fortes neiges  Fortes précipitations  Vent > 20 kt
SIGMETs :   Divers  Orages  Givrage  Turbulence  Onde Orograph.  Cendres Volcan.







- Altitude de l'aérodrome : 33 ft
- Code IATA : MHZ


EGUN - RAF Mildenhall

DERNIER METAR :
  • 200056Z AUTO 20006KT 9999 OVC035 06/06 A3011 RMK AO2 SLP200 T00590059 $

METARs EXPIRÉS :
  • 200031Z AUTO 19006KT 9999 BKN046 BKN070 05/05 A3012 RMK AO2 SLP203 $
  • 192356Z AUTO 20006KT 9999 OVC070 05/05 A3014 RMK AO2 SLP210 T00500050 10050 20017 400761020 57016 $
  • 192256Z AUTO 21005KT 9999 OVC070 05/05 A3016 RMK AO2 SLP217 T00450045 .

TAF AMD TAF EGUN
Valide du 19 à 22h jusqu'au 21 à 02h UTC


192202Z 1922/2102 21009KT 9999 BKN070 QNH3006INS
BECMG 2003/2004 20009KT 8000 -SHRA BKN018 OVC030 620809 QNH3000INS
BECMG 2005/2006 22012G20KT 8000 -SHRA BKN012 OVC020 620505 QNH2992INS
TEMPO 2013/2018 25015G25KT
BECMG 2021/2022 26009KT 9999 NSW SCT020 QNH2989INS
BECMG 2100/2101 26006KT 9000 BR BKN020 620809 QNH2987INS TX10/2016Z TN03/1922Z
Pas de NOTAMs connus pour ce terrain.



MET'MAP, la Météo Aéronautique d'un coup d'oeil ! - Copyright ORBIFLY Décembre 2007 - Disclaimer

ORBIFLY MET'MAP TEAM :

Programmation & Développement : Alexandra Zaïnal
Conception & Développement : Baudouin d'Aumeries
Co-Programmation & Développement : Marc-Olivier Méhu
Soutien technique & logistique : Manuel Goepfert

Contact : metmap@orbifly.com




SOURCES & CREDITS :

   NOAA